»·PEaware :: N187PW KSBP-KBFL

N187PW :: KSBP-KBFL

FLIGHT INFORMATION

Flight Status: Arrived
Operator: Privately registered:
United States
More flights under this callsign
Pilot: Anonymous 10468 (10468)
Aircraft: CESSNA 172 SKYHAWK
(C172)
More flights by this aircraft type
Origin: KSBP San Luis Co Regl
United States
Destination: KBFL Meadows
United States
More flights between these airports :: More routes between these airports
Route:
File this flight plan on PilotEdge
Remarks:
Altitude:
(Current/Filed)
7,500ft
Speed:
(Current/Filed)
0kts
Departed: 10-Jan-21 01:25 PM
Arrived: 10-Jan-21 02:03 PM
Distance/Time
Traveled:
79nm/0:37
Distance/Time
To Go:
Arrived

Flight Plot

Page will automatically refresh every two minutes.


Map Options




Map Legend


Flown Route
Filed Route
Departure Airport
Arrival Airport
Navaid (VOR, NDB)
Fix

Horizontal Profiles

Position Reports

Time Latitude Longitude Heading Altitude Ground
Speed
10-Jan-21 13:23 34.949173 -120.283954 113 5081ft 91kts
10-Jan-21 13:24 34.950760 -120.254601 39 5664ft 82kts
10-Jan-21 13:25 34.962770 -120.229077 62 6248ft 88kts
10-Jan-21 13:26 34.976044 -120.203074 45 6653ft 92kts
10-Jan-21 13:27 34.988756 -120.169879 84 6498ft 108kts
10-Jan-21 13:28 35.000440 -120.136258 51 6495ft 117kts
10-Jan-21 13:29 35.017645 -120.095026 55 6487ft 127kts
10-Jan-21 13:30 35.033586 -120.052226 58 6656ft 120kts
10-Jan-21 13:31 35.048339 -120.009446 59 6734ft 124kts
10-Jan-21 13:32 35.062539 -119.967165 59 6731ft 112kts
10-Jan-21 13:33 35.075413 -119.928808 58 6731ft 102kts
10-Jan-21 13:34 35.081881 -119.896650 52 6728ft 85kts
10-Jan-21 13:35 35.091582 -119.867807 53 6751ft 80kts
10-Jan-21 13:36 35.103207 -119.841187 49 6805ft 77kts
10-Jan-21 13:37 35.113986 -119.815997 52 6792ft 96kts
10-Jan-21 13:38 35.128121 -119.782633 53 6795ft 117kts
10-Jan-21 13:39 35.143150 -119.746786 53 6797ft 111kts
10-Jan-21 13:40 35.159424 -119.710920 59 6766ft 116kts
10-Jan-21 13:41 35.173850 -119.676251 57 6823ft 112kts
10-Jan-21 13:42 35.188651 -119.638500 55 6735ft 111kts
10-Jan-21 13:43 35.204257 -119.600945 54 6341ft 122kts
10-Jan-21 13:44 35.218912 -119.564838 57 5970ft 118kts
10-Jan-21 13:45 35.234029 -119.527680 52 5589ft 124kts
10-Jan-21 13:46 35.251542 -119.488939 56 5155ft 128kts
10-Jan-21 13:47 35.267401 -119.449637 49 4773ft 126kts
10-Jan-21 13:48 35.284738 -119.410845 58 4336ft 130kts
10-Jan-21 13:49 35.301606 -119.371755 56 3873ft 130kts
10-Jan-21 13:50 35.318018 -119.332465 59 3519ft 127kts
10-Jan-21 13:51 35.335030 -119.292170 60 3086ft 128kts
10-Jan-21 13:52 35.351654 -119.253001 58 2671ft 108kts
10-Jan-21 13:53 35.366901 -119.216606 58 2345ft 119kts
10-Jan-21 13:54 35.382594 -119.178713 59 1962ft 122kts
10-Jan-21 13:55 35.397470 -119.144274 58 1630ft 109kts
10-Jan-21 13:56 35.410572 -119.111857 62 1510ft 97kts
10-Jan-21 13:58 35.421926 -119.084067 68 1562ft 77kts
10-Jan-21 13:59 35.402961 -119.068553 162 1642ft 96kts
10-Jan-21 14:00 35.385389 -119.049338 84 1508ft 85kts
10-Jan-21 14:01 35.404290 -119.032752 358 1265ft 83kts
10-Jan-21 14:02 35.424592 -119.045021 311 724ft 73kts
10-Jan-21 14:03 35.436030 -119.058492 24 490ft 12kts
10-Jan-21 14:04 35.434637 -119.054897 134 492ft 35kts
10-Jan-21 14:05 35.431250 -119.049077 110 496ft 15kts
10-Jan-21 14:06 35.431409 -119.048215 36 498ft 0kts
10-Jan-21 14:07 35.431409 -119.048215 36 498ft 0kts
10-Jan-21 14:08 35.431409 -119.048215 36 498ft 0kts
10-Jan-21 14:09 35.431409 -119.048215 36 498ft 0kts
10-Jan-21 14:10 35.431409 -119.048215 36 498ft 0kts
10-Jan-21 14:11 35.431409 -119.048215 36 498ft 0kts
10-Jan-21 14:12 35.431409 -119.048215 36 498ft 0kts
10-Jan-21 14:13 35.431409 -119.048215 36 498ft 0kts
10-Jan-21 14:13 35.431409 -119.048215 36 498ft 0kts
10-Jan-21 14:14 35.431409 -119.048215 36 498ft 0kts
10-Jan-21 14:16 35.431409 -119.048215 36 498ft 0kts
10-Jan-21 14:16 35.431409 -119.048215 36 498ft 0kts

Navigation Log

Ident Type
Flight plan parsing failed, navigation log unavailable